createdAt,value
2019-01-04T00:00:25.834Z,4.20
2019-01-04T00:02:54.808Z,5.23
2019-01-04T00:05:23.927Z,4.03
2019-01-04T00:07:52.895Z,4.17
2019-01-04T00:10:21.864Z,4.27
2019-01-04T00:12:50.946Z,3.90
2019-01-04T00:15:19.924Z,4.20
2019-01-04T00:17:48.891Z,4.20
2019-01-04T00:20:17.943Z,4.00
2019-01-04T00:22:46.914Z,4.07
2019-01-04T00:25:15.893Z,4.40
2019-01-04T00:27:44.852Z,3.90
2019-01-04T00:30:14.004Z,4.40
2019-01-04T00:32:43.005Z,4.37
2019-01-04T00:35:12.049Z,4.47
2019-01-04T00:37:41.163Z,4.47
2019-01-04T00:40:10.568Z,4.67
2019-01-04T00:42:39.544Z,4.47
2019-01-04T00:45:09.238Z,6.87
2019-01-04T00:47:38.279Z,5.97
2019-01-04T00:50:08.508Z,5.50
2019-01-04T00:52:37.542Z,6.60
2019-01-04T00:55:15.534Z,6.40
2019-01-04T00:58:22.213Z,6.03
2019-01-04T01:01:16.790Z,7.07
2019-01-04T01:04:05.595Z,6.43
2019-01-04T01:07:07.875Z,5.53
2019-01-04T01:09:57.246Z,5.60
2019-01-04T01:12:43.523Z,6.03
2019-01-04T01:15:15.565Z,6.47
2019-01-04T01:18:21.150Z,5.73
2019-01-04T01:21:04.968Z,5.50
2019-01-04T01:23:59.396Z,6.47
2019-01-04T01:26:37.444Z,6.10
2019-01-04T01:29:24.484Z,6.10
2019-01-04T01:31:55.722Z,5.27
2019-01-04T01:34:49.017Z,5.00
2019-01-04T01:37:43.784Z,5.27
2019-01-04T01:40:39.550Z,5.60
2019-01-04T01:43:36.550Z,6.20
2019-01-04T01:46:24.929Z,7.10
2019-01-04T01:48:59.825Z,7.07
2019-01-04T01:51:31.873Z,6.23
2019-01-04T01:54:00.845Z,7.43
2019-01-04T01:56:29.803Z,6.50
2019-01-04T01:58:58.771Z,5.77
2019-01-04T02:01:27.746Z,6.10
2019-01-04T02:03:56.703Z,6.67
2019-01-04T02:06:25.690Z,6.63
2019-01-04T02:08:54.651Z,6.77
2019-01-04T02:11:23.615Z,6.80
2019-01-04T02:13:52.585Z,6.63
2019-01-04T02:16:21.542Z,6.33
2019-01-04T02:18:50.538Z,6.73
2019-01-04T02:21:19.558Z,6.57
2019-01-04T02:23:48.539Z,6.63
2019-01-04T02:26:17.495Z,6.77
2019-01-04T02:28:46.470Z,6.60
2019-01-04T02:31:15.438Z,7.43
2019-01-04T02:33:44.420Z,6.97
2019-01-04T02:36:13.385Z,8.20
2019-01-04T02:38:42.390Z,7.37
2019-01-04T02:41:11.368Z,7.13
2019-01-04T02:43:40.627Z,6.43
2019-01-04T02:46:09.686Z,7.27
2019-01-04T02:48:38.657Z,6.97
2019-01-04T02:51:07.607Z,6.13
2019-01-04T02:53:36.586Z,7.63
2019-01-04T02:56:05.601Z,7.10
2019-01-04T02:58:34.611Z,6.53
2019-01-04T03:01:03.699Z,5.83
2019-01-04T03:03:32.691Z,7.07
2019-01-04T03:06:01.650Z,6.93
2019-01-04T03:08:30.626Z,6.80
2019-01-04T03:10:59.598Z,6.67
2019-01-04T03:13:28.583Z,6.43
2019-01-04T03:15:57.606Z,6.43
2019-01-04T03:18:26.579Z,6.63
2019-01-04T03:20:55.549Z,6.67
2019-01-04T03:23:24.522Z,6.87
2019-01-04T03:25:53.471Z,6.30
2019-01-04T03:28:22.458Z,7.30
2019-01-04T03:30:51.482Z,6.70
2019-01-04T03:33:20.469Z,6.90
2019-01-04T03:35:49.497Z,6.20
2019-01-04T03:38:18.466Z,5.83
2019-01-04T03:40:47.425Z,6.27
2019-01-04T03:43:16.399Z,7.20
2019-01-04T03:45:45.441Z,5.80
2019-01-04T03:48:14.416Z,7.43
2019-01-04T03:50:43.375Z,6.10
2019-01-04T03:53:12.351Z,6.87
2019-01-04T03:55:41.332Z,7.07
2019-01-04T03:58:10.286Z,6.90
2019-01-04T04:00:39.251Z,7.90
2019-01-04T04:03:08.234Z,6.93
2019-01-04T04:05:37.206Z,6.67
2019-01-04T04:08:06.182Z,6.70
2019-01-04T04:10:35.150Z,6.93
2019-01-04T04:13:04.139Z,6.43
2019-01-04T04:15:33.181Z,6.73
2019-01-04T04:18:02.178Z,6.13
2019-01-04T04:20:31.137Z,6.87
2019-01-04T04:23:00.102Z,6.70
2019-01-04T04:25:29.075Z,6.50
2019-01-04T04:27:58.986Z,6.43
2019-01-04T04:30:27.955Z,6.47
2019-01-04T04:32:56.996Z,7.73
2019-01-04T04:35:25.957Z,6.80
2019-01-04T04:37:54.929Z,7.97
2019-01-04T04:40:23.911Z,8.13
2019-01-04T04:42:52.887Z,10.33
2019-01-04T04:45:21.858Z,10.07
2019-01-04T04:47:50.823Z,9.77
2019-01-04T04:50:19.807Z,9.20
2019-01-04T04:52:48.779Z,9.13
2019-01-04T04:55:17.744Z,10.07
2019-01-04T04:57:46.710Z,9.83
2019-01-04T05:00:15.686Z,10.90
2019-01-04T05:02:44.674Z,11.33
2019-01-04T05:05:13.654Z,11.10
2019-01-04T05:07:42.624Z,10.70
2019-01-04T05:10:11.583Z,9.97
2019-01-04T05:12:40.575Z,9.93
2019-01-04T05:15:09.535Z,10.57
2019-01-04T05:17:38.506Z,10.93
2019-01-04T05:20:07.478Z,9.90
2019-01-04T05:22:36.452Z,11.63
2019-01-04T05:25:05.514Z,12.07
2019-01-04T05:27:34.480Z,10.63
2019-01-04T05:30:04.028Z,11.63
2019-01-04T05:32:32.986Z,11.37
2019-01-04T05:35:01.975Z,10.63
2019-01-04T05:37:30.949Z,11.07
2019-01-04T05:39:59.918Z,10.43
2019-01-04T05:42:28.900Z,11.17
2019-01-04T05:44:57.864Z,10.43
2019-01-04T05:47:26.851Z,11.13
2019-01-04T05:49:55.825Z,11.07
2019-01-04T05:52:24.803Z,11.63
2019-01-04T05:54:53.779Z,9.93
2019-01-04T05:57:22.750Z,10.67
2019-01-04T05:59:51.719Z,9.90
2019-01-04T06:02:20.698Z,11.33
2019-01-04T06:04:49.682Z,10.57
2019-01-04T06:07:18.663Z,11.37
2019-01-04T06:09:47.639Z,9.63
2019-01-04T06:12:16.598Z,10.20
2019-01-04T06:14:45.575Z,9.50
2019-01-04T06:17:14.546Z,10.10
2019-01-04T06:19:43.503Z,10.03
2019-01-04T06:22:12.491Z,11.83
2019-01-04T06:24:41.455Z,10.00
2019-01-04T06:27:10.539Z,10.20
2019-01-04T06:29:39.505Z,10.93
2019-01-04T06:32:08.487Z,10.63
2019-01-04T06:34:37.462Z,10.57
2019-01-04T06:37:06.427Z,10.40
2019-01-04T06:39:35.404Z,10.67
2019-01-04T06:42:04.434Z,11.07
2019-01-04T06:44:33.410Z,12.30
2019-01-04T06:47:10.393Z,11.47
2019-01-04T06:49:39.378Z,12.00
2019-01-04T06:52:08.415Z,11.43
2019-01-04T06:55:13.785Z,11.43
2019-01-04T06:57:42.747Z,10.60
2019-01-04T07:00:11.894Z,12.17
2019-01-04T07:02:41.070Z,11.70
2019-01-04T07:05:10.186Z,11.70
2019-01-04T07:07:39.286Z,11.47
2019-01-04T07:10:09.418Z,11.17
2019-01-04T07:12:38.371Z,10.33
2019-01-04T07:15:07.491Z,11.50
2019-01-04T07:17:36.456Z,11.50
2019-01-04T07:20:05.974Z,12.33
2019-01-04T07:22:34.955Z,12.73
2019-01-04T07:25:04.122Z,10.97
2019-01-04T07:27:33.086Z,11.93
2019-01-04T07:30:02.071Z,11.37
2019-01-04T07:32:31.035Z,11.60
2019-01-04T07:35:00.177Z,12.60
2019-01-04T07:37:29.143Z,12.23
2019-01-04T07:39:58.181Z,12.87
2019-01-04T07:42:27.147Z,13.13
2019-01-04T07:44:56.161Z,12.47
2019-01-04T07:47:25.213Z,13.03
2019-01-04T07:49:54.190Z,12.97
2019-01-04T07:52:23.175Z,13.10
2019-01-04T07:54:52.144Z,13.60
2019-01-04T07:57:21.126Z,12.43
2019-01-04T07:59:50.096Z,12.07
2019-01-04T08:02:37.161Z,12.87
2019-01-04T08:05:11.985Z,12.17
2019-01-04T08:07:40.950Z,11.90
2019-01-04T08:10:10.054Z,11.37
2019-01-04T08:12:39.054Z,10.07
2019-01-04T08:15:10.547Z,9.77
2019-01-04T08:17:39.540Z,9.30
2019-01-04T08:20:10.238Z,8.67
2019-01-04T08:22:39.220Z,9.43
2019-01-04T08:25:08.879Z,9.43
2019-01-04T08:27:37.910Z,9.63
2019-01-04T08:30:09.878Z,9.53
2019-01-04T08:32:38.931Z,8.43
2019-01-04T08:35:08.034Z,9.33
2019-01-04T08:37:37.019Z,9.10
2019-01-04T08:40:08.727Z,8.13
2019-01-04T08:42:37.719Z,8.70
2019-01-04T08:45:07.942Z,7.83
2019-01-04T08:47:36.922Z,8.93
2019-01-04T08:50:08.015Z,9.03
2019-01-04T08:52:37.071Z,8.37
2019-01-04T08:55:08.459Z,8.30
2019-01-04T08:57:37.435Z,8.77
2019-01-04T09:00:09.472Z,8.47
2019-01-04T09:02:38.453Z,7.97
2019-01-04T09:05:07.480Z,7.47
2019-01-04T09:07:36.532Z,7.80
2019-01-04T09:10:06.829Z,7.80
2019-01-04T09:12:35.798Z,8.20
2019-01-04T09:15:07.109Z,7.40
2019-01-04T09:17:36.097Z,8.43
2019-01-04T09:20:07.990Z,8.33
2019-01-04T09:22:37.033Z,8.37
2019-01-04T09:25:07.338Z,8.37
2019-01-04T09:27:36.314Z,8.57
2019-01-04T09:30:08.218Z,8.37
2019-01-04T09:32:37.199Z,8.63
2019-01-04T09:35:06.753Z,8.37
2019-01-04T09:37:35.739Z,7.57
2019-01-04T09:40:07.258Z,8.33
2019-01-04T09:42:36.649Z,8.23
2019-01-04T09:45:07.639Z,6.80
2019-01-04T09:47:36.624Z,7.50
2019-01-04T09:50:07.726Z,6.57
2019-01-04T09:52:36.711Z,6.93
2019-01-04T09:55:06.314Z,7.97
2019-01-04T09:57:35.289Z,7.33
2019-01-04T10:00:06.210Z,7.20
2019-01-04T10:02:35.182Z,7.80
2019-01-04T10:05:05.974Z,8.50
2019-01-04T10:07:34.962Z,7.57
2019-01-04T10:10:06.063Z,6.90
2019-01-04T10:12:35.029Z,8.00
2019-01-04T10:15:06.007Z,7.07
2019-01-04T10:17:34.977Z,8.17
2019-01-04T10:20:06.286Z,8.17
2019-01-04T10:22:35.243Z,9.10
2019-01-04T10:25:05.589Z,8.87
2019-01-04T10:27:34.536Z,9.30
2019-01-04T10:30:04.126Z,9.03
2019-01-04T10:32:33.106Z,9.73
2019-01-04T10:35:02.095Z,8.83
2019-01-04T10:37:31.067Z,8.73
2019-01-04T10:40:00.088Z,9.10
2019-01-04T10:42:29.111Z,8.70
2019-01-04T10:44:58.094Z,9.63
2019-01-04T10:47:27.144Z,8.53
2019-01-04T10:49:56.119Z,8.67
2019-01-04T10:52:25.088Z,10.23
2019-01-04T10:54:54.144Z,8.40
2019-01-04T10:57:23.107Z,8.57
2019-01-04T10:59:52.084Z,8.20
2019-01-04T11:02:21.052Z,8.93
2019-01-04T11:04:50.023Z,8.50
2019-01-04T11:07:18.985Z,8.87
2019-01-04T11:09:47.963Z,7.97
2019-01-04T11:12:17.175Z,8.73
2019-01-04T11:14:46.142Z,8.20
2019-01-04T11:17:15.115Z,9.00
2019-01-04T11:19:44.102Z,8.80
2019-01-04T11:22:49.267Z,8.57
2019-01-04T11:25:54.521Z,7.83
2019-01-04T11:28:53.631Z,6.83
2019-01-04T11:31:31.526Z,7.53
2019-01-04T11:34:12.541Z,7.17
2019-01-04T11:37:05.710Z,7.43
2019-01-04T11:39:37.750Z,7.10
2019-01-04T11:42:09.839Z,7.23
2019-01-04T11:45:02.727Z,6.97
2019-01-04T11:47:46.522Z,6.90
2019-01-04T11:50:30.526Z,8.17
2019-01-04T11:53:00.743Z,7.00
2019-01-04T11:55:29.696Z,8.23
2019-01-04T11:57:58.665Z,7.97
2019-01-04T12:00:27.743Z,8.03
2019-01-04T12:02:56.731Z,7.30
2019-01-04T12:05:25.676Z,6.83
2019-01-04T12:07:54.650Z,8.87
2019-01-04T12:10:23.628Z,7.37
2019-01-04T12:12:52.609Z,6.60
2019-01-04T12:15:21.647Z,6.40
2019-01-04T12:17:50.619Z,5.87
2019-01-04T12:20:19.571Z,5.77
2019-01-04T12:22:48.575Z,6.37
2019-01-04T12:25:17.550Z,5.10
2019-01-04T12:27:46.512Z,5.87
2019-01-04T12:30:15.586Z,6.00
2019-01-04T12:32:44.595Z,6.73
2019-01-04T12:35:13.637Z,5.50
2019-01-04T12:37:42.683Z,5.80
2019-01-04T12:40:11.727Z,5.40
2019-01-04T12:42:40.723Z,5.43
2019-01-04T12:45:09.826Z,4.83
2019-01-04T12:47:38.823Z,5.23
2019-01-04T12:50:08.650Z,5.30
2019-01-04T12:52:37.627Z,4.37
2019-01-04T12:55:06.676Z,4.53
2019-01-04T12:57:35.711Z,4.67
2019-01-04T13:00:07.871Z,3.93
2019-01-04T13:02:36.828Z,3.97
2019-01-04T13:05:05.935Z,3.37
2019-01-04T13:07:34.922Z,3.87
2019-01-04T13:10:04.334Z,3.83
2019-01-04T13:12:33.314Z,4.33
2019-01-04T13:15:02.295Z,4.27
2019-01-04T13:17:31.259Z,4.13
2019-01-04T13:20:00.236Z,4.47
2019-01-04T13:22:29.200Z,4.57
2019-01-04T13:24:58.178Z,3.90
2019-01-04T13:27:27.139Z,3.57
2019-01-04T13:29:56.114Z,3.70
2019-01-04T13:32:25.094Z,3.97
2019-01-04T13:34:54.071Z,4.77
2019-01-04T13:37:23.134Z,5.07
2019-01-04T13:39:52.158Z,4.50
2019-01-04T13:42:21.131Z,4.90
2019-01-04T13:44:50.103Z,4.93
2019-01-04T13:47:19.079Z,4.23
2019-01-04T13:49:48.034Z,4.20
2019-01-04T13:52:17.006Z,5.27
2019-01-04T13:54:45.979Z,3.87
2019-01-04T13:57:14.961Z,5.63
2019-01-04T13:59:43.906Z,7.03
2019-01-04T14:02:12.896Z,5.57
2019-01-04T14:04:41.865Z,5.80
2019-01-04T14:07:10.866Z,5.20
2019-01-04T14:09:39.839Z,7.60
2019-01-04T14:12:08.810Z,5.63
2019-01-04T14:14:37.762Z,5.93
2019-01-04T14:17:06.755Z,5.73
2019-01-04T14:19:35.719Z,5.13
2019-01-04T14:22:04.674Z,6.00
2019-01-04T14:24:33.736Z,5.67
2019-01-04T14:27:02.711Z,6.10
2019-01-04T14:29:31.746Z,5.70
2019-01-04T14:32:00.704Z,5.90
2019-01-04T14:34:29.687Z,6.03
2019-01-04T14:36:58.725Z,6.30
2019-01-04T14:39:27.719Z,5.67
2019-01-04T14:41:57.583Z,5.97
2019-01-04T14:44:26.555Z,7.10
2019-01-04T14:46:55.524Z,6.13
2019-01-04T14:49:26.227Z,5.97
2019-01-04T14:51:55.252Z,6.27
2019-01-04T14:54:24.311Z,5.40
2019-01-04T14:56:53.277Z,6.07
2019-01-04T14:59:22.258Z,6.47
2019-01-04T15:01:51.228Z,6.33
2019-01-04T15:04:20.199Z,6.20
2019-01-04T15:06:49.174Z,6.60
2019-01-04T15:09:18.166Z,7.10
2019-01-04T15:11:47.129Z,6.20
2019-01-04T15:14:16.098Z,6.80
2019-01-04T15:16:45.055Z,7.17
2019-01-04T15:19:14.095Z,7.27
2019-01-04T15:21:43.068Z,8.50
2019-01-04T15:24:12.052Z,8.40
2019-01-04T15:26:40.998Z,8.27
2019-01-04T15:29:10.008Z,9.03
2019-01-04T15:31:38.968Z,9.13
2019-01-04T15:34:07.948Z,9.17
2019-01-04T15:36:36.908Z,7.80
2019-01-04T15:39:07.410Z,10.57
2019-01-04T15:41:36.382Z,9.30
2019-01-04T15:44:05.439Z,10.37
2019-01-04T15:46:34.417Z,8.90
2019-01-04T15:49:03.410Z,9.93
2019-01-04T15:51:32.362Z,8.67
2019-01-04T15:54:01.354Z,9.23
2019-01-04T15:56:30.339Z,8.03
2019-01-04T15:58:59.328Z,8.53
2019-01-04T16:01:28.295Z,8.80
2019-01-04T16:03:57.279Z,8.57
2019-01-04T16:06:26.246Z,9.03
2019-01-04T16:08:55.261Z,9.73
2019-01-04T16:11:24.273Z,8.03
2019-01-04T16:13:53.259Z,9.80
2019-01-04T16:16:22.216Z,9.60
2019-01-04T16:18:51.190Z,8.80
2019-01-04T16:21:20.150Z,8.63
2019-01-04T16:23:49.130Z,9.10
2019-01-04T16:26:18.178Z,9.23
2019-01-04T16:28:47.159Z,9.27
2019-01-04T16:31:16.126Z,8.33
2019-01-04T16:33:45.098Z,8.93
2019-01-04T16:36:14.162Z,9.20
2019-01-04T16:38:43.137Z,8.77
2019-01-04T16:41:12.114Z,9.37
2019-01-04T16:43:41.086Z,9.27
2019-01-04T16:46:10.095Z,9.20
2019-01-04T16:48:39.061Z,9.10
2019-01-04T16:51:08.039Z,11.43
2019-01-04T16:53:37.033Z,10.63
2019-01-04T16:56:06.088Z,9.87
2019-01-04T16:58:35.068Z,10.10
2019-01-04T17:01:04.112Z,9.90
2019-01-04T17:03:33.090Z,9.90
2019-01-04T17:06:02.070Z,9.87
2019-01-04T17:08:31.114Z,9.97
2019-01-04T17:11:00.154Z,10.87
2019-01-04T17:13:29.143Z,10.83
2019-01-04T17:15:58.126Z,11.13
2019-01-04T17:18:27.193Z,12.63
2019-01-04T17:20:56.168Z,13.07
2019-01-04T17:23:25.147Z,12.30
2019-01-04T17:25:54.146Z,11.67
2019-01-04T17:28:23.127Z,12.37
2019-01-04T17:30:52.146Z,12.43
2019-01-04T17:33:21.209Z,13.50
2019-01-04T17:35:50.183Z,12.03
2019-01-04T17:38:19.147Z,11.10
2019-01-04T17:40:48.148Z,11.97
2019-01-04T17:43:17.114Z,11.77
2019-01-04T17:45:46.104Z,11.93
2019-01-04T17:48:15.123Z,11.03
2019-01-04T17:50:44.126Z,11.50
2019-01-04T17:53:13.100Z,11.43
2019-01-04T17:55:42.080Z,13.07
2019-01-04T17:58:11.059Z,11.57
2019-01-04T18:00:40.070Z,11.93
2019-01-04T18:03:09.039Z,12.40
2019-01-04T18:05:38.036Z,13.30
2019-01-04T18:08:07.021Z,12.70
2019-01-04T18:10:36.019Z,11.77
2019-01-04T18:13:04.985Z,12.33
2019-01-04T18:15:34.053Z,13.23
2019-01-04T18:18:03.041Z,12.60
2019-01-04T18:20:32.039Z,12.33
2019-01-04T18:23:01.002Z,12.07
2019-01-04T18:25:30.000Z,12.47
2019-01-04T18:27:58.971Z,12.07
2019-01-04T18:30:27.959Z,12.03
2019-01-04T18:32:56.930Z,11.70
2019-01-04T18:35:25.912Z,12.67
2019-01-04T18:37:54.910Z,12.57
2019-01-04T18:40:23.880Z,12.70
2019-01-04T18:42:52.859Z,11.97
2019-01-04T18:45:21.842Z,13.50
2019-01-04T18:47:50.820Z,13.43
2019-01-04T18:50:21.695Z,13.20
2019-01-04T18:52:50.765Z,14.27
2019-01-04T18:55:19.768Z,14.00
2019-01-04T18:57:48.749Z,14.50
2019-01-04T19:00:17.742Z,15.30
2019-01-04T19:02:46.740Z,16.43
2019-01-04T19:05:15.736Z,15.17
2019-01-04T19:07:45.241Z,15.47
2019-01-04T19:10:14.323Z,15.20
2019-01-04T19:12:43.490Z,14.60
2019-01-04T19:15:12.461Z,16.50
2019-01-04T19:17:41.522Z,15.33
2019-01-04T19:20:10.497Z,15.30
2019-01-04T19:22:39.800Z,17.63
2019-01-04T19:25:08.805Z,15.80
2019-01-04T19:27:37.759Z,16.60
2019-01-04T19:30:08.271Z,15.97
2019-01-04T19:32:37.357Z,16.57
2019-01-04T19:35:06.399Z,17.70
2019-01-04T19:37:35.399Z,18.07
2019-01-04T19:40:05.521Z,18.80
2019-01-04T19:42:34.511Z,17.93
2019-01-04T19:45:04.327Z,19.30
2019-01-04T19:47:33.312Z,18.03
2019-01-04T19:50:11.212Z,17.77
2019-01-04T19:52:40.183Z,18.33
2019-01-04T19:55:09.200Z,18.93
2019-01-04T19:57:38.171Z,18.13
2019-01-04T20:00:07.281Z,18.37
2019-01-04T20:02:36.343Z,17.50
2019-01-04T20:05:06.462Z,18.70
2019-01-04T20:08:01.243Z,17.83
2019-01-04T20:11:17.486Z,19.33
2019-01-04T20:14:10.425Z,17.77
2019-01-04T20:16:50.603Z,18.70
2019-01-04T20:19:37.422Z,17.20
2019-01-04T20:22:26.038Z,17.83
2019-01-04T20:24:56.670Z,17.07
2019-01-04T20:27:42.282Z,17.40
2019-01-04T20:30:18.948Z,16.37
2019-01-04T20:33:05.613Z,18.60
2019-01-04T20:35:39.222Z,18.20
2019-01-04T20:38:26.307Z,17.73
2019-01-04T20:40:56.946Z,17.13
2019-01-04T20:43:27.562Z,17.37
2019-01-04T20:46:10.314Z,15.70
2019-01-04T20:48:40.959Z,18.10
2019-01-04T20:51:17.538Z,17.33
2019-01-04T20:53:50.903Z,17.17
2019-01-04T20:56:21.543Z,17.80
2019-01-04T20:58:54.832Z,18.33
2019-01-04T21:01:41.895Z,17.77
2019-01-04T21:04:15.517Z,18.87
2019-01-04T21:06:55.535Z,18.57
2019-01-04T21:09:26.150Z,18.37
2019-01-04T21:11:56.759Z,15.87
2019-01-04T21:14:33.327Z,18.20
2019-01-04T21:17:06.903Z,17.80
2019-01-04T21:19:43.470Z,16.40
2019-01-04T21:22:16.870Z,16.60
2019-01-04T21:24:47.487Z,17.60
2019-01-04T21:27:24.233Z,16.93
2019-01-04T21:29:54.901Z,16.37
2019-01-04T21:32:28.239Z,15.60
2019-01-04T21:34:58.872Z,16.00
2019-01-04T21:37:41.423Z,16.33
2019-01-04T21:40:23.966Z,14.53
2019-01-04T21:43:03.445Z,14.00
2019-01-04T21:45:50.528Z,15.90
2019-01-04T21:48:37.446Z,14.63
2019-01-04T21:51:13.839Z,14.27
2019-01-04T21:53:47.146Z,15.10
2019-01-04T21:56:33.925Z,14.50
2019-01-04T21:59:16.537Z,14.07
2019-01-04T22:01:47.157Z,13.70
2019-01-04T22:04:34.210Z,14.13
2019-01-04T22:07:13.720Z,13.67
2019-01-04T22:09:53.546Z,13.60
2019-01-04T22:12:27.103Z,13.17
2019-01-04T22:15:14.441Z,13.13
2019-01-04T22:17:53.925Z,12.57
2019-01-04T22:20:42.594Z,12.83
2019-01-04T22:23:13.198Z,12.73
2019-01-04T22:26:00.475Z,12.17
2019-01-04T22:28:37.323Z,10.83
2019-01-04T22:31:10.779Z,12.77
2019-01-04T22:33:41.419Z,12.17
2019-01-04T22:36:17.503Z,10.37
2019-01-04T22:39:04.350Z,11.13
2019-01-04T22:41:40.543Z,11.40
2019-01-04T22:44:27.429Z,12.00
2019-01-04T22:47:14.520Z,10.60
2019-01-04T22:50:00.161Z,10.30
2019-01-04T22:52:46.966Z,11.67
2019-01-04T22:55:17.603Z,11.23
2019-01-04T22:57:53.907Z,10.53
2019-01-04T23:00:35.351Z,10.53
2019-01-04T23:03:21.907Z,11.43
2019-01-04T23:06:10.540Z,11.37
2019-01-04T23:08:57.682Z,11.73
2019-01-04T23:11:34.461Z,11.67
2019-01-04T23:14:14.361Z,11.80
2019-01-04T23:17:01.206Z,11.17
2019-01-04T23:19:37.766Z,12.90
2019-01-04T23:22:27.179Z,11.60
2019-01-04T23:25:09.718Z,11.47
2019-01-04T23:27:56.899Z,11.83
2019-01-04T23:30:43.755Z,10.40
2019-01-04T23:33:29.608Z,10.67
2019-01-04T23:36:16.698Z,10.40
2019-01-04T23:38:47.315Z,9.57
2019-01-04T23:41:36.003Z,10.80
2019-01-04T23:44:24.682Z,9.37
2019-01-04T23:47:11.861Z,9.37
2019-01-04T23:49:45.070Z,10.33
2019-01-04T23:52:18.698Z,9.87
2019-01-04T23:54:49.403Z,10.30
2019-01-04T23:57:20.079Z,10.73
